createdAt,value
2018-05-07T00:04:24.598Z,3.30
2018-05-07T00:06:53.598Z,3.30
2018-05-07T00:09:26.202Z,2.63
2018-05-07T00:12:04.966Z,3.67
2018-05-07T00:20:16.778Z,3.33
2018-05-07T00:22:46.424Z,3.60
2018-05-07T00:25:17.072Z,3.67
2018-05-07T00:28:01.326Z,3.17
2018-05-07T00:30:30.993Z,3.10
2018-05-07T00:33:03.612Z,3.93
2018-05-07T00:35:36.453Z,3.23
2018-05-07T00:41:08.349Z,3.50
2018-05-07T00:43:44.744Z,3.20
2018-05-07T00:46:14.380Z,3.90
2018-05-07T00:48:43.269Z,3.80
2018-05-07T00:51:19.638Z,4.23
2018-05-07T00:53:49.650Z,3.70
2018-05-07T00:56:18.642Z,3.70
2018-05-07T00:58:47.860Z,3.83
2018-05-07T01:01:17.800Z,5.03
2018-05-07T01:03:47.242Z,4.00
2018-05-07T01:06:20.349Z,3.77
2018-05-07T01:08:50.354Z,3.83
2018-05-07T01:11:19.871Z,4.53
2018-05-07T01:13:48.747Z,3.93
2018-05-07T01:16:17.880Z,3.70
2018-05-07T01:18:46.631Z,3.70
2018-05-07T01:21:16.174Z,4.10
2018-05-07T01:23:44.863Z,3.47
2018-05-07T01:29:02.165Z,4.07
2018-05-07T01:31:30.924Z,4.20
2018-05-07T01:34:01.150Z,4.40
2018-05-07T01:36:29.760Z,4.30
2018-05-07T01:38:58.726Z,3.93
2018-05-07T01:41:27.400Z,4.10
2018-05-07T01:43:56.035Z,4.50
2018-05-07T01:46:24.633Z,4.37
2018-05-07T01:48:53.278Z,5.07
2018-05-07T01:51:21.964Z,4.30
2018-05-07T01:53:51.689Z,4.03
2018-05-07T01:56:22.246Z,4.03
2018-05-07T01:58:54.880Z,4.40
2018-05-07T02:04:12.149Z,4.13
2018-05-07T02:06:40.774Z,4.63
2018-05-07T02:09:09.441Z,5.35
2018-05-07T02:11:38.043Z,4.73
2018-05-07T02:14:06.667Z,5.00
2018-05-07T02:16:35.473Z,4.60
2018-05-07T02:19:04.083Z,4.80
2018-05-07T02:21:32.711Z,4.17
2018-05-07T02:24:01.371Z,4.67
2018-05-07T02:26:30.560Z,4.20
2018-05-07T02:28:59.617Z,4.20
2018-05-07T02:34:15.825Z,4.00
2018-05-07T02:36:45.374Z,4.40
2018-05-07T02:39:14.024Z,4.13
2018-05-07T02:41:42.713Z,4.20
2018-05-07T02:44:11.313Z,4.70
2018-05-07T02:46:39.945Z,4.77
2018-05-07T02:49:08.559Z,4.20
2018-05-07T02:51:37.181Z,4.37
2018-05-07T02:54:06.045Z,4.47
2018-05-07T02:56:34.670Z,4.43
2018-05-07T02:59:03.788Z,5.60
2018-05-07T03:01:32.422Z,4.40
2018-05-07T03:04:01.474Z,4.33
2018-05-07T03:06:32.520Z,4.83
2018-05-07T03:09:01.146Z,4.17
2018-05-07T03:11:29.777Z,4.10
2018-05-07T03:13:58.425Z,4.33
2018-05-07T03:16:27.427Z,4.50
2018-05-07T03:18:56.060Z,4.90
2018-05-07T03:21:24.684Z,4.70
2018-05-07T03:23:53.314Z,5.70
2018-05-07T03:26:22.230Z,4.97
2018-05-07T03:28:50.893Z,4.67
2018-05-07T03:31:20.027Z,4.77
2018-05-07T03:33:48.866Z,4.77
2018-05-07T03:36:17.875Z,4.73
2018-05-07T03:38:47.010Z,5.00
2018-05-07T03:41:16.390Z,4.67
2018-05-07T03:43:45.159Z,4.80
2018-05-07T03:46:15.371Z,4.27
2018-05-07T03:48:44.326Z,4.73
2018-05-07T03:51:13.219Z,4.77
2018-05-07T03:53:42.642Z,4.17
2018-05-07T03:56:11.622Z,4.70
2018-05-07T03:58:40.866Z,4.83
2018-05-07T04:01:09.819Z,4.20
2018-05-07T04:03:39.186Z,4.47
2018-05-07T04:06:07.787Z,2.80
2018-05-07T04:08:36.396Z,4.70
2018-05-07T04:11:05.056Z,3.90
2018-05-07T04:13:33.706Z,4.40
2018-05-07T04:16:02.655Z,4.27
2018-05-07T04:19:08.383Z,4.13
2018-05-07T04:21:37.019Z,4.50
2018-05-07T04:24:23.856Z,4.80
2018-05-07T04:26:54.673Z,4.33
2018-05-07T04:32:11.356Z,4.73
2018-05-07T04:34:40.290Z,6.65
2018-05-07T04:37:09.269Z,5.60
2018-05-07T04:39:39.097Z,5.53
2018-05-07T04:44:55.657Z,5.57
2018-05-07T04:47:24.478Z,5.33
2018-05-07T04:52:41.242Z,5.47
2018-05-07T04:55:12.713Z,5.50
2018-05-07T04:57:46.678Z,5.70
2018-05-07T05:00:16.837Z,6.10
2018-05-07T05:02:45.993Z,5.30
2018-05-07T05:05:16.341Z,6.20
2018-05-07T05:07:45.560Z,5.80
2018-05-07T05:10:14.482Z,7.37
2018-05-07T05:12:44.143Z,7.97
2018-05-07T05:15:13.228Z,6.77
2018-05-07T05:17:41.854Z,6.30
2018-05-07T05:20:14.493Z,6.47
2018-05-07T05:22:43.175Z,5.97
2018-05-07T05:25:12.716Z,6.10
2018-05-07T05:27:41.351Z,6.07
2018-05-07T05:30:09.967Z,6.20
2018-05-07T05:32:42.532Z,6.20
2018-05-07T05:35:11.176Z,7.07
2018-05-07T05:37:39.809Z,6.50
2018-05-07T05:40:08.474Z,6.53
2018-05-07T05:42:37.082Z,6.37
2018-05-07T05:45:05.988Z,7.30
2018-05-07T05:47:34.608Z,7.27
2018-05-07T05:50:18.655Z,6.77
2018-05-07T05:52:47.233Z,6.60
2018-05-07T05:55:15.877Z,6.23
2018-05-07T05:57:45.459Z,6.07
2018-05-07T06:00:17.284Z,5.93
2018-05-07T06:02:47.955Z,5.90
2018-05-07T06:05:16.587Z,6.00
2018-05-07T06:07:46.521Z,5.67
2018-05-07T06:10:15.627Z,6.17
2018-05-07T06:12:45.281Z,6.20
2018-05-07T06:15:15.289Z,5.47
2018-05-07T06:17:44.121Z,6.00
2018-05-07T06:20:13.556Z,5.80
2018-05-07T06:22:44.828Z,6.13
2018-05-07T06:25:13.715Z,6.80
2018-05-07T06:27:42.820Z,5.40
2018-05-07T06:30:11.743Z,5.73
2018-05-07T06:32:40.858Z,5.53
2018-05-07T06:35:10.232Z,6.17
2018-05-07T06:37:44.324Z,5.50
2018-05-07T06:40:35.044Z,5.13
2018-05-07T06:43:09.082Z,5.57
2018-05-07T06:45:43.661Z,5.80
2018-05-07T06:48:18.440Z,4.90
2018-05-07T06:50:53.359Z,5.33
2018-05-07T06:53:27.312Z,4.53
2018-05-07T06:56:02.445Z,4.70
2018-05-07T06:58:37.244Z,5.23
2018-05-07T07:01:12.297Z,4.87
2018-05-07T07:03:46.363Z,4.73
2018-05-07T07:06:21.291Z,4.67
2018-05-07T07:08:55.608Z,5.32
2018-05-07T07:22:53.282Z,4.07
2018-05-07T07:31:00.814Z,4.15
2018-05-07T07:33:48.304Z,4.18
2018-05-07T07:36:16.962Z,3.80
2018-05-07T07:38:45.538Z,3.72
2018-05-07T07:41:14.173Z,3.78
2018-05-07T07:43:46.909Z,3.80
2018-05-07T07:46:15.557Z,3.33
2018-05-07T07:48:46.230Z,3.65
2018-05-07T07:51:14.785Z,3.67
2018-05-07T07:53:44.431Z,4.10
2018-05-07T07:56:12.969Z,3.83
2018-05-07T07:58:42.008Z,3.35
2018-05-07T08:01:18.511Z,3.00
2018-05-07T08:03:47.112Z,3.20
2018-05-07T08:06:15.751Z,3.08
2018-05-07T08:08:44.379Z,3.10
2018-05-07T08:11:12.351Z,3.20
2018-05-07T08:13:43.030Z,3.50
2018-05-07T08:16:14.012Z,3.50
2018-05-07T08:18:43.628Z,3.20
2018-05-07T08:21:12.294Z,3.25
2018-05-07T08:23:41.801Z,3.67
2018-05-07T08:28:58.027Z,3.28
2018-05-07T08:31:26.678Z,3.55
2018-05-07T08:33:55.801Z,3.08
2018-05-07T08:36:24.455Z,3.65
2018-05-07T08:38:53.179Z,3.15
2018-05-07T08:41:23.700Z,3.97
2018-05-07T08:43:54.357Z,3.10
2018-05-07T08:46:24.933Z,3.25
2018-05-07T08:51:57.020Z,4.32
2018-05-07T08:57:22.133Z,2.80
2018-05-07T08:59:53.009Z,3.12
2018-05-07T09:02:21.959Z,3.37
2018-05-07T09:04:50.955Z,2.60
2018-05-07T09:07:19.800Z,2.72
2018-05-07T09:09:48.613Z,2.05
2018-05-07T09:12:17.459Z,2.60
2018-05-07T09:14:46.112Z,2.55
2018-05-07T09:17:15.860Z,2.62
2018-05-07T09:19:44.511Z,2.58
2018-05-07T09:22:13.137Z,3.10
2018-05-07T09:24:42.312Z,2.78
2018-05-07T09:27:10.843Z,2.42
2018-05-07T09:29:39.949Z,2.70
2018-05-07T09:32:08.901Z,2.55
2018-05-07T09:34:38.845Z,2.75
2018-05-07T09:37:07.766Z,2.92
2018-05-07T09:39:36.964Z,2.42
2018-05-07T09:42:06.378Z,2.75
2018-05-07T09:44:36.847Z,2.28
2018-05-07T09:47:05.812Z,2.50
2018-05-07T09:49:35.085Z,2.58
2018-05-07T09:52:03.618Z,2.45
2018-05-07T09:54:32.279Z,2.30
2018-05-07T09:57:00.909Z,2.28
2018-05-07T09:59:30.222Z,2.97
2018-05-07T10:01:59.509Z,2.50
2018-05-07T10:04:30.703Z,2.28
2018-05-07T10:06:59.509Z,2.20
2018-05-07T10:09:28.605Z,2.50
2018-05-07T10:11:57.256Z,2.95
2018-05-07T10:14:27.013Z,3.00
2018-05-07T10:16:56.362Z,2.70
2018-05-07T10:19:27.501Z,2.15
2018-05-07T10:21:56.507Z,2.10
2018-05-07T10:24:25.444Z,3.10
2018-05-07T10:26:58.497Z,2.50
2018-05-07T10:29:29.023Z,2.60
2018-05-07T10:31:58.557Z,2.10
2018-05-07T10:34:34.821Z,2.42
2018-05-07T10:37:04.520Z,2.97
2018-05-07T10:39:33.802Z,2.70
2018-05-07T10:42:02.881Z,2.40
2018-05-07T10:44:31.675Z,2.47
2018-05-07T10:47:03.159Z,2.25
2018-05-07T10:49:31.845Z,2.20
2018-05-07T10:52:01.163Z,2.45
2018-05-07T10:54:30.071Z,2.40
2018-05-07T10:56:59.156Z,2.80
2018-05-07T10:59:27.849Z,2.35
2018-05-07T11:01:59.915Z,2.35
2018-05-07T11:04:29.106Z,2.80
2018-05-07T11:06:59.192Z,2.60
2018-05-07T11:09:29.642Z,2.33
2018-05-07T11:11:58.429Z,2.60
2018-05-07T11:14:27.271Z,2.55
2018-05-07T11:16:56.294Z,2.20
2018-05-07T11:19:25.625Z,2.50
2018-05-07T11:21:55.124Z,2.25
2018-05-07T11:24:34.775Z,2.12
2018-05-07T11:27:06.968Z,2.20
2018-05-07T11:29:35.939Z,2.25
2018-05-07T11:32:04.799Z,2.20
2018-05-07T11:34:36.898Z,2.20
2018-05-07T11:37:09.435Z,2.10
2018-05-07T11:39:39.279Z,2.37
2018-05-07T11:42:09.482Z,1.90
2018-05-07T11:44:39.162Z,1.95
2018-05-07T11:47:08.778Z,2.28
2018-05-07T11:49:40.205Z,2.05
2018-05-07T11:52:09.795Z,2.30
2018-05-07T11:54:39.071Z,2.33
2018-05-07T11:57:08.012Z,2.53
2018-05-07T11:59:41.688Z,2.40
2018-05-07T12:02:11.646Z,2.00
2018-05-07T12:04:43.188Z,2.37
2018-05-07T12:07:12.435Z,2.05
2018-05-07T12:09:41.489Z,2.20
2018-05-07T12:12:10.173Z,1.85
2018-05-07T12:14:39.195Z,2.03
2018-05-07T12:17:09.322Z,1.95
2018-05-07T12:19:39.307Z,2.40
2018-05-07T12:22:22.027Z,2.40
2018-05-07T12:24:51.366Z,2.17
2018-05-07T12:27:36.693Z,2.25
2018-05-07T12:30:09.079Z,2.17
2018-05-07T12:35:30.486Z,1.90
2018-05-07T12:38:05.615Z,1.90
2018-05-07T12:40:35.241Z,1.85
2018-05-07T12:43:07.481Z,1.90
2018-05-07T12:45:39.356Z,1.58
2018-05-07T12:48:09.069Z,1.70
2018-05-07T12:50:42.502Z,1.60
2018-05-07T12:53:13.497Z,2.00
2018-05-07T12:55:46.452Z,1.80
2018-05-07T13:01:05.764Z,1.60
2018-05-07T13:03:38.958Z,1.75
2018-05-07T13:06:07.883Z,1.58
2018-05-07T13:08:37.607Z,1.40
2018-05-07T13:11:18.333Z,1.80
2018-05-07T13:13:47.364Z,2.20
2018-05-07T13:19:06.426Z,1.70
2018-05-07T13:21:38.662Z,2.08
2018-05-07T13:24:07.587Z,1.75
2018-05-07T13:26:36.503Z,1.87
2018-05-07T13:29:05.701Z,1.67
2018-05-07T13:31:36.203Z,1.55
2018-05-07T13:34:04.949Z,1.65
2018-05-07T13:36:36.023Z,1.73
2018-05-07T13:39:04.626Z,1.60
2018-05-07T13:41:36.737Z,1.67
2018-05-07T13:44:05.339Z,1.45
2018-05-07T13:46:34.015Z,2.10
2018-05-07T13:49:02.700Z,1.90
2018-05-07T13:51:31.396Z,1.92
2018-05-07T13:54:00.047Z,1.62
2018-05-07T13:56:29.031Z,1.60
2018-05-07T13:58:59.797Z,2.40
2018-05-07T14:01:28.412Z,1.35
2018-05-07T14:03:57.200Z,1.70
2018-05-07T14:06:26.775Z,1.73
2018-05-07T14:08:55.835Z,1.37
2018-05-07T14:11:24.450Z,1.58
2018-05-07T14:13:53.093Z,1.50
2018-05-07T14:16:21.789Z,1.80
2018-05-07T14:18:51.414Z,1.77
2018-05-07T14:21:20.473Z,1.70
2018-05-07T14:23:49.261Z,1.40
2018-05-07T14:26:21.635Z,1.50
2018-05-07T14:28:53.478Z,1.70
2018-05-07T14:31:24.039Z,1.58
2018-05-07T14:33:53.318Z,1.47
2018-05-07T14:36:25.812Z,1.70
2018-05-07T14:38:59.217Z,1.37
2018-05-07T14:44:24.283Z,1.33
2018-05-07T14:46:53.526Z,1.70
2018-05-07T14:49:22.425Z,1.50
2018-05-07T14:52:05.214Z,1.17
2018-05-07T14:54:41.356Z,1.40
2018-05-07T15:00:06.674Z,1.45
2018-05-07T15:02:36.634Z,1.50
2018-05-07T15:05:08.213Z,1.42
2018-05-07T15:07:47.064Z,1.60
2018-05-07T15:10:15.692Z,1.40
2018-05-07T15:15:35.146Z,1.40
2018-05-07T15:18:12.525Z,1.42
2018-05-07T15:23:47.004Z,1.33
2018-05-07T15:29:06.426Z,1.58
2018-05-07T15:31:35.501Z,1.23
2018-05-07T15:34:05.656Z,1.48
2018-05-07T15:36:37.131Z,1.42
2018-05-07T15:39:06.416Z,1.33
2018-05-07T15:41:39.656Z,1.40
2018-05-07T15:44:11.899Z,1.15
2018-05-07T15:46:48.333Z,2.10
2018-05-07T15:49:25.093Z,1.30
2018-05-07T15:51:53.702Z,1.20
2018-05-07T15:54:22.375Z,1.40
2018-05-07T15:56:52.690Z,1.37
2018-05-07T15:59:27.417Z,1.35
2018-05-07T16:01:58.157Z,1.30
2018-05-07T16:04:29.607Z,1.40
2018-05-07T16:06:58.790Z,1.33
2018-05-07T16:09:29.220Z,1.35
2018-05-07T16:11:58.390Z,1.25
2018-05-07T16:14:27.973Z,1.40
2018-05-07T16:16:57.931Z,1.40
2018-05-07T16:19:26.913Z,1.30
2018-05-07T16:21:55.936Z,1.30
2018-05-07T16:24:25.244Z,1.65
2018-05-07T16:26:56.733Z,1.60
2018-05-07T16:29:29.149Z,1.17
2018-05-07T16:31:59.837Z,1.15
2018-05-07T16:34:28.614Z,1.62
2018-05-07T16:36:57.414Z,1.50
2018-05-07T16:39:26.571Z,1.47
2018-05-07T16:41:56.752Z,1.33
2018-05-07T16:44:25.507Z,1.50
2018-05-07T16:46:54.114Z,1.40
2018-05-07T16:49:22.747Z,1.50
2018-05-07T16:51:51.393Z,1.60
2018-05-07T16:54:36.323Z,1.50
2018-05-07T16:57:06.305Z,1.70
2018-05-07T16:59:34.958Z,1.85
2018-05-07T17:02:03.559Z,1.73
2018-05-07T17:04:32.511Z,1.80
2018-05-07T17:07:01.720Z,1.60
2018-05-07T17:09:30.343Z,1.80
2018-05-07T17:12:00.051Z,1.83
2018-05-07T17:14:28.676Z,1.40
2018-05-07T17:16:59.320Z,1.30
2018-05-07T17:19:27.923Z,1.50
2018-05-07T17:21:56.561Z,1.50
2018-05-07T17:24:25.217Z,1.60
2018-05-07T17:26:53.851Z,1.55
2018-05-07T17:29:22.483Z,1.30
2018-05-07T17:31:58.174Z,1.50
2018-05-07T17:34:27.667Z,1.92
2018-05-07T17:36:56.315Z,1.37
2018-05-07T17:39:25.462Z,1.60
2018-05-07T17:41:54.395Z,1.48
2018-05-07T17:44:59.850Z,1.30
2018-05-07T17:50:53.567Z,1.50
2018-05-07T17:53:30.397Z,1.40
2018-05-07T17:55:59.084Z,1.60
2018-05-07T17:58:35.042Z,1.50
2018-05-07T18:01:03.815Z,1.30
2018-05-07T18:03:35.998Z,1.62
2018-05-07T18:06:05.076Z,1.77
2018-05-07T18:08:36.885Z,1.70
2018-05-07T18:11:10.747Z,1.77
2018-05-07T18:13:41.287Z,1.15
2018-05-07T18:16:11.780Z,1.62
2018-05-07T18:18:40.486Z,1.70
2018-05-07T18:21:09.144Z,1.50
2018-05-07T18:23:38.705Z,1.73
2018-05-07T18:26:10.497Z,1.48
2018-05-07T18:28:46.867Z,1.58
2018-05-07T18:31:16.083Z,1.70
2018-05-07T18:33:44.848Z,1.62
2018-05-07T18:36:15.711Z,1.73
2018-05-07T18:38:46.338Z,1.92
2018-05-07T18:41:15.419Z,1.87
2018-05-07T18:43:44.085Z,2.00
2018-05-07T18:46:16.390Z,1.77
2018-05-07T18:48:50.056Z,1.70
2018-05-07T18:51:19.118Z,1.67
2018-05-07T18:53:48.284Z,2.03
2018-05-07T18:56:27.351Z,2.30
2018-05-07T18:58:59.288Z,2.55
2018-05-07T19:01:28.703Z,2.15
2018-05-07T19:04:01.159Z,2.00
2018-05-07T19:06:31.804Z,2.03
2018-05-07T19:09:06.199Z,2.00
2018-05-07T19:11:35.477Z,1.90
2018-05-07T19:14:04.827Z,2.28
2018-05-07T19:22:18.541Z,1.80
2018-05-07T19:25:03.101Z,2.28
2018-05-07T19:30:20.611Z,1.80
2018-05-07T19:32:49.295Z,1.73
2018-05-07T19:35:17.960Z,2.00
2018-05-07T19:37:46.732Z,2.15
2018-05-07T19:40:15.541Z,2.00
2018-05-07T19:45:41.693Z,1.98
2018-05-07T19:48:12.360Z,2.22
2018-05-07T19:50:42.034Z,2.15
2018-05-07T19:53:26.482Z,2.30
2018-05-07T19:55:55.213Z,2.20
2018-05-07T19:58:24.082Z,2.53
2018-05-07T20:00:55.130Z,2.30
2018-05-07T20:03:39.253Z,2.40
2018-05-07T20:06:11.545Z,2.10
2018-05-07T20:08:46.106Z,2.40
2018-05-07T20:11:23.127Z,2.05
2018-05-07T20:16:39.649Z,2.28
2018-05-07T20:19:16.416Z,2.47
2018-05-07T20:21:46.108Z,2.58
2018-05-07T20:27:04.599Z,2.50
2018-05-07T20:29:37.971Z,2.60
2018-05-07T20:32:07.133Z,2.37
2018-05-07T20:34:38.266Z,2.00
2018-05-07T20:37:06.967Z,2.27
2018-05-07T20:42:27.435Z,2.00
2018-05-07T20:53:19.637Z,2.13
2018-05-07T20:55:49.087Z,2.57
2018-05-07T20:58:27.943Z,2.83
2018-05-07T21:00:56.663Z,2.47
2018-05-07T21:03:26.155Z,2.30
2018-05-07T21:06:02.882Z,2.00
2018-05-07T21:08:31.927Z,2.27
2018-05-07T21:11:01.046Z,2.30
2018-05-07T21:13:31.760Z,2.50
2018-05-07T21:16:00.793Z,2.67
2018-05-07T21:18:29.874Z,2.70
2018-05-07T21:20:58.676Z,2.40
2018-05-07T21:23:27.756Z,2.80
2018-05-07T21:25:56.753Z,2.07
2018-05-07T21:28:25.865Z,2.27
2018-05-07T21:30:57.647Z,2.65
2018-05-07T21:33:26.787Z,2.50
2018-05-07T21:35:55.906Z,2.87
2018-05-07T21:38:25.687Z,2.92
2018-05-07T21:40:54.668Z,2.67
2018-05-07T21:43:23.585Z,2.10
2018-05-07T21:45:52.697Z,2.60
2018-05-07T21:48:21.530Z,2.30
2018-05-07T21:50:50.436Z,2.70
2018-05-07T21:53:19.800Z,2.80
2018-05-07T21:55:48.769Z,2.60
2018-05-07T21:58:17.777Z,2.77
2018-05-07T22:00:46.794Z,2.27
2018-05-07T22:03:15.780Z,2.57
2018-05-07T22:05:44.675Z,2.67
2018-05-07T22:08:15.939Z,2.53
2018-05-07T22:10:45.028Z,2.60
2018-05-07T22:13:13.945Z,2.43
2018-05-07T22:15:42.491Z,2.80
2018-05-07T22:18:11.361Z,2.73
2018-05-07T22:20:42.600Z,2.30
2018-05-07T22:23:11.227Z,2.27
2018-05-07T22:25:39.887Z,2.73
2018-05-07T22:28:08.484Z,2.70
2018-05-07T22:30:37.732Z,2.30
2018-05-07T22:33:06.743Z,2.57
2018-05-07T22:35:35.976Z,2.93
2018-05-07T22:38:04.704Z,3.30
2018-05-07T22:40:34.454Z,2.83
2018-05-07T22:43:03.433Z,3.20
2018-05-07T22:45:33.419Z,2.93
2018-05-07T22:48:04.869Z,3.30
2018-05-07T22:50:33.633Z,2.77
2018-05-07T22:53:02.627Z,2.40
2018-05-07T22:55:31.473Z,2.37
2018-05-07T22:58:08.667Z,2.50
2018-05-07T23:00:37.497Z,2.87
2018-05-07T23:03:06.573Z,2.30
2018-05-07T23:05:35.562Z,2.50
2018-05-07T23:08:04.569Z,2.53
2018-05-07T23:10:37.812Z,2.83
2018-05-07T23:13:06.467Z,2.77
2018-05-07T23:15:35.194Z,3.12
2018-05-07T23:18:03.835Z,2.80
2018-05-07T23:20:33.085Z,2.87
2018-05-07T23:23:01.751Z,3.10
2018-05-07T23:25:30.503Z,3.13
2018-05-07T23:28:00.268Z,3.17
2018-05-07T23:30:28.873Z,3.40
2018-05-07T23:32:57.529Z,2.93
2018-05-07T23:35:26.153Z,3.40
2018-05-07T23:37:54.824Z,3.50
2018-05-07T23:40:23.451Z,2.70
2018-05-07T23:42:52.108Z,2.80
2018-05-07T23:45:20.719Z,4.07
2018-05-07T23:47:50.283Z,3.23
2018-05-07T23:50:19.520Z,3.37
2018-05-07T23:52:48.180Z,3.50
2018-05-07T23:55:16.871Z,3.63
2018-05-07T23:57:45.531Z,3.13
